createdAt,value
2022-08-25T00:00:50.032Z,100347.59
2022-08-25T00:03:53.339Z,100347.09
2022-08-25T00:07:02.209Z,100345.44
2022-08-25T00:10:07.961Z,100346.13
2022-08-25T00:13:10.568Z,100346.44
2022-08-25T00:16:16.818Z,100353.25
2022-08-25T00:19:22.983Z,100350.75
2022-08-25T00:22:25.900Z,100342.50
2022-08-25T00:25:28.501Z,100345.34
2022-08-25T00:28:31.359Z,100340.03
2022-08-25T00:31:38.490Z,100343.19
2022-08-25T00:34:42.265Z,100347.69
2022-08-25T00:37:44.963Z,100338.44
2022-08-25T00:41:05.854Z,100345.91
2022-08-25T00:44:10.980Z,100339.75
2022-08-25T00:47:13.584Z,100339.13
2022-08-25T00:50:17.395Z,100343.06
2022-08-25T00:53:21.174Z,100336.41
2022-08-25T00:56:25.244Z,100340.69
2022-08-25T00:59:28.983Z,100343.28
2022-08-25T01:02:31.682Z,100339.56
2022-08-25T01:05:35.686Z,100329.91
2022-08-25T01:08:38.698Z,100330.50
2022-08-25T01:11:44.634Z,100339.69
2022-08-25T01:14:52.951Z,100329.31
2022-08-25T01:18:00.287Z,100329.66
2022-08-25T01:21:03.158Z,100332.50
2022-08-25T01:24:07.182Z,100332.84
2022-08-25T01:27:10.552Z,100341.41
2022-08-25T01:30:13.527Z,100334.25
2022-08-25T01:33:17.443Z,100333.31
2022-08-25T01:36:21.925Z,100322.91
2022-08-25T01:39:25.667Z,100329.00
2022-08-25T01:42:52.444Z,100321.09
2022-08-25T01:45:56.193Z,100324.06
2022-08-25T01:49:04.994Z,100324.22
2022-08-25T01:52:21.426Z,100333.62
2022-08-25T01:55:25.437Z,100323.69
2022-08-25T01:58:35.995Z,100331.59
2022-08-25T02:01:40.214Z,100328.69
2022-08-25T02:04:44.346Z,100327.25
2022-08-25T02:07:47.371Z,100327.41
2022-08-25T02:10:52.343Z,100328.00
2022-08-25T02:13:55.033Z,100320.88
2022-08-25T02:16:58.473Z,100315.56
2022-08-25T02:20:01.722Z,100322.88
2022-08-25T02:23:05.223Z,100319.91
2022-08-25T02:26:08.956Z,100323.22
2022-08-25T02:29:12.503Z,100320.50
2022-08-25T02:32:15.374Z,100326.13
2022-08-25T02:35:21.632Z,100320.12
2022-08-25T02:38:24.878Z,100325.28
2022-08-25T02:41:31.403Z,100314.59
2022-08-25T02:44:36.817Z,100304.56
2022-08-25T02:47:41.512Z,100308.06
2022-08-25T02:50:53.049Z,100314.72
2022-08-25T02:53:57.658Z,100312.06
2022-08-25T02:57:00.580Z,100312.69
2022-08-25T03:00:06.042Z,100306.13
2022-08-25T03:03:08.759Z,100309.41
2022-08-25T03:06:17.819Z,100306.75
2022-08-25T03:09:21.182Z,100311.22
2022-08-25T03:12:24.669Z,100306.31
2022-08-25T03:15:27.807Z,100306.31
2022-08-25T03:18:33.902Z,100306.75
2022-08-25T03:21:38.519Z,100297.31
2022-08-25T03:24:42.106Z,100304.75
2022-08-25T03:27:45.134Z,100301.19
2022-08-25T03:30:48.753Z,100297.81
2022-08-25T03:33:59.954Z,100301.81
2022-08-25T03:37:06.079Z,100309.19
2022-08-25T03:40:15.199Z,100311.13
2022-08-25T03:43:20.781Z,100317.44
2022-08-25T03:46:28.308Z,100313.50
2022-08-25T03:49:32.389Z,100307.22
2022-08-25T03:52:41.907Z,100307.03
2022-08-25T03:55:45.679Z,100304.16
2022-08-25T03:58:48.718Z,100304.25
2022-08-25T04:01:55.092Z,100303.44
2022-08-25T04:04:58.031Z,100301.37
2022-08-25T04:08:01.809Z,100312.59
2022-08-25T04:11:19.880Z,100317.84
2022-08-25T04:14:23.679Z,100319.41
2022-08-25T04:17:26.418Z,100318.28
2022-08-25T04:20:28.680Z,100312.84
2022-08-25T04:23:31.229Z,100317.59
2022-08-25T04:26:39.376Z,100331.34
2022-08-25T04:29:41.962Z,100319.66
2022-08-25T04:32:44.138Z,100324.59
2022-08-25T04:35:50.492Z,100323.06
2022-08-25T04:38:52.736Z,100321.38
2022-08-25T04:41:55.356Z,100321.25
2022-08-25T04:44:57.810Z,100323.62
2022-08-25T04:48:01.355Z,100322.22
2022-08-25T04:51:08.121Z,100316.91
2022-08-25T04:54:13.915Z,100323.00
2022-08-25T04:57:16.121Z,100318.44
2022-08-25T05:00:18.821Z,100318.63
2022-08-25T05:03:21.398Z,100327.47
2022-08-25T05:06:24.371Z,100329.13
2022-08-25T05:09:27.990Z,100319.91
2022-08-25T05:12:31.462Z,100334.22
2022-08-25T05:15:50.911Z,100332.00
2022-08-25T05:18:55.181Z,100332.00
2022-08-25T05:21:57.937Z,100328.84
2022-08-25T05:25:00.669Z,100335.47
2022-08-25T05:28:03.128Z,100339.53
2022-08-25T05:31:06.092Z,100335.97
2022-08-25T05:34:08.838Z,100330.94
2022-08-25T05:37:12.293Z,100333.06
2022-08-25T05:40:15.901Z,100339.13
2022-08-25T05:43:18.578Z,100330.41
2022-08-25T05:46:21.879Z,100333.00
2022-08-25T05:49:24.268Z,100331.13
2022-08-25T05:52:29.549Z,100327.84
2022-08-25T05:55:32.117Z,100332.25
2022-08-25T05:58:36.638Z,100330.12
2022-08-25T06:01:58.385Z,100325.53
2022-08-25T06:05:00.813Z,100329.59
2022-08-25T06:08:05.169Z,100332.09
2022-08-25T06:11:07.747Z,100322.06
2022-08-25T06:14:10.692Z,100326.69
2022-08-25T06:17:13.119Z,100335.44
2022-08-25T06:20:19.116Z,100340.09
2022-08-25T06:23:24.704Z,100330.06
2022-08-25T06:26:26.906Z,100332.19
2022-08-25T06:29:29.402Z,100331.84
2022-08-25T06:32:32.832Z,100334.34
2022-08-25T06:35:35.482Z,100336.31
2022-08-25T06:38:37.671Z,100337.72
2022-08-25T06:41:40.245Z,100350.69
2022-08-25T06:44:42.667Z,100346.03
2022-08-25T06:47:48.071Z,100344.47
2022-08-25T06:50:50.414Z,100348.41
2022-08-25T06:53:53.755Z,100348.75
2022-08-25T06:56:56.089Z,100352.31
2022-08-25T07:00:00.543Z,100343.38
2022-08-25T07:03:05.160Z,100342.28
2022-08-25T07:06:09.991Z,100346.00
2022-08-25T07:09:13.643Z,100348.78
2022-08-25T07:12:16.387Z,100348.19
2022-08-25T07:15:20.838Z,100345.37
2022-08-25T07:18:23.828Z,100352.28
2022-08-25T07:21:30.016Z,100341.13
2022-08-25T07:24:35.193Z,100341.16
2022-08-25T07:27:38.995Z,100345.47
2022-08-25T07:30:44.425Z,100337.62
2022-08-25T07:34:12.527Z,100334.38
2022-08-25T07:37:27.541Z,100341.53
2022-08-25T07:40:42.716Z,100343.28
2022-08-25T07:43:47.627Z,100338.28
2022-08-25T07:46:53.660Z,100334.06
2022-08-25T07:49:56.272Z,100330.78
2022-08-25T07:52:59.434Z,100323.38
2022-08-25T07:59:12.521Z,100315.53
2022-08-25T08:02:18.826Z,100325.06
2022-08-25T08:05:24.022Z,100322.56
2022-08-25T08:08:27.116Z,100327.97
2022-08-25T08:11:34.442Z,100321.75
2022-08-25T08:14:36.508Z,100324.66
2022-08-25T08:17:42.179Z,100322.31
2022-08-25T08:20:47.299Z,100312.50
2022-08-25T08:23:58.557Z,100316.69
2022-08-25T08:27:01.083Z,100315.91
2022-08-25T08:30:05.603Z,100320.38
2022-08-25T08:33:11.438Z,100314.41
2022-08-25T08:36:15.682Z,100314.78
2022-08-25T08:39:18.727Z,100315.25
2022-08-25T08:42:43.100Z,100314.84
2022-08-25T08:45:53.743Z,100311.75
2022-08-25T08:49:01.478Z,100313.25
2022-08-25T08:52:05.448Z,100310.44
2022-08-25T08:55:20.098Z,100305.59
2022-08-25T08:58:41.702Z,100295.94
2022-08-25T09:02:05.069Z,100295.59
2022-08-25T13:18:59.519Z,100056.91
2022-08-25T13:22:22.906Z,100050.16
2022-08-25T13:25:32.420Z,100051.91
2022-08-25T13:28:40.808Z,100053.13
2022-08-25T13:32:14.465Z,100045.81
2022-08-25T13:35:32.064Z,100048.78
2022-08-25T13:38:34.491Z,100042.59
2022-08-25T13:41:45.874Z,100043.03
2022-08-25T13:44:51.626Z,100038.62
2022-08-25T13:47:56.260Z,100034.31
2022-08-25T13:51:10.906Z,100033.19
2022-08-25T13:54:26.774Z,100035.03
2022-08-25T13:57:30.656Z,100031.75
2022-08-25T14:00:49.348Z,100032.91
2022-08-25T14:04:18.424Z,100032.09
2022-08-25T14:07:25.600Z,100030.28
2022-08-25T14:10:44.519Z,100022.56
2022-08-25T14:13:58.865Z,100024.34
2022-08-25T14:17:28.632Z,100031.75
2022-08-25T14:20:43.377Z,100028.03
2022-08-25T14:23:47.119Z,100019.44
2022-08-25T14:26:54.035Z,100016.37
2022-08-25T14:29:57.824Z,100011.53
2022-08-25T14:33:01.419Z,100014.34
2022-08-25T14:36:06.041Z,100016.87
2022-08-25T14:39:09.752Z,100013.56
2022-08-25T14:42:13.575Z,100010.25
2022-08-25T14:45:17.065Z,100010.03
2022-08-25T14:48:28.658Z,100003.81
2022-08-25T14:51:32.842Z,100004.03
2022-08-25T14:54:37.608Z,100013.34
2022-08-25T14:57:40.130Z,100006.56
2022-08-25T15:00:44.989Z,100000.25
2022-08-25T15:03:50.627Z,99999.44
2022-08-25T15:07:00.018Z,99996.03
2022-08-25T15:10:02.503Z,99992.16
2022-08-25T15:13:06.375Z,99995.69
2022-08-25T15:16:08.958Z,99996.03
2022-08-25T15:19:16.468Z,99995.91
2022-08-25T15:22:18.855Z,99995.69
2022-08-25T15:25:22.885Z,99998.28
2022-08-25T15:28:26.946Z,99999.44
2022-08-25T15:31:29.702Z,99998.75
2022-08-25T15:34:32.250Z,99996.75
2022-08-25T15:37:35.767Z,99992.66
2022-08-25T15:40:40.046Z,99989.59
2022-08-25T15:43:43.371Z,99978.66
2022-08-25T15:46:49.900Z,99975.00
2022-08-25T15:50:03.763Z,99976.06
2022-08-25T15:53:08.315Z,99977.03
2022-08-25T15:56:26.831Z,99974.91
2022-08-25T15:59:30.788Z,99967.72
2022-08-25T16:02:35.232Z,99966.16
2022-08-25T16:05:41.324Z,99969.00
2022-08-25T16:08:50.531Z,99957.47
2022-08-25T16:11:56.157Z,99961.13
2022-08-25T16:15:00.042Z,99953.94
2022-08-25T16:18:04.846Z,99956.97
2022-08-25T16:21:16.735Z,99960.25
2022-08-25T16:24:19.812Z,99955.37
2022-08-25T16:27:22.108Z,99955.72
2022-08-25T16:30:24.858Z,99959.78
2022-08-25T16:33:27.095Z,99951.78
2022-08-25T16:36:29.752Z,99947.75
2022-08-25T16:39:31.997Z,99948.28
2022-08-25T16:42:34.846Z,99948.84
2022-08-25T16:45:37.253Z,99956.19
2022-08-25T16:48:41.256Z,99955.00
2022-08-25T16:51:43.658Z,99956.94
2022-08-25T16:55:05.005Z,99955.84
2022-08-25T16:58:07.984Z,99952.63
2022-08-25T17:01:15.715Z,99955.47
2022-08-25T17:04:18.299Z,99958.44
2022-08-25T17:07:23.897Z,99968.28
2022-08-25T17:10:26.959Z,99960.47
2022-08-25T17:13:30.070Z,99967.00
2022-08-25T17:16:35.756Z,99973.09
2022-08-25T17:19:38.665Z,99965.72
2022-08-25T17:22:44.435Z,99970.78
2022-08-25T17:25:47.052Z,99969.63
2022-08-25T17:28:49.325Z,99969.06
2022-08-25T17:31:51.997Z,99968.50
2022-08-25T17:34:54.602Z,99969.16
2022-08-25T17:37:57.136Z,99971.09
2022-08-25T17:41:02.996Z,99964.06
2022-08-25T17:44:07.921Z,99972.41
2022-08-25T17:47:11.069Z,99971.84
2022-08-25T17:50:16.639Z,99974.97
2022-08-25T17:53:19.611Z,99974.38
2022-08-25T17:56:24.220Z,99981.66
2022-08-25T17:59:27.486Z,99980.25
2022-08-25T18:02:35.135Z,99991.22
2022-08-25T18:05:38.550Z,99986.88
2022-08-25T18:08:52.390Z,99995.19
2022-08-25T18:12:01.036Z,99996.03
2022-08-25T18:15:04.563Z,100000.37
2022-08-25T18:18:07.772Z,99996.00
2022-08-25T18:21:15.069Z,99998.28
2022-08-25T18:24:18.159Z,100001.81
2022-08-25T18:27:21.737Z,99999.13
2022-08-25T18:30:26.230Z,100002.87
2022-08-25T18:33:32.909Z,100001.41
2022-08-25T18:36:38.568Z,100001.19
2022-08-25T18:39:59.764Z,99997.06
2022-08-25T18:43:08.301Z,99993.34
2022-08-25T18:46:11.466Z,100001.41
2022-08-25T18:49:15.618Z,99994.97
2022-08-25T18:52:18.727Z,99992.03
2022-08-25T18:55:26.646Z,99994.31
2022-08-25T18:58:29.051Z,99991.44
2022-08-25T19:01:31.781Z,99993.47
2022-08-25T19:04:34.056Z,99995.34
2022-08-25T19:07:36.584Z,99994.47
2022-08-25T19:10:45.215Z,99996.50
2022-08-25T19:13:48.391Z,99986.81
2022-08-25T19:16:51.870Z,99997.72
2022-08-25T19:19:55.321Z,99996.25
2022-08-25T19:22:58.432Z,99989.84
2022-08-25T19:26:00.957Z,99997.44
2022-08-25T19:29:10.263Z,100000.53
2022-08-25T19:32:12.990Z,99992.69
2022-08-25T19:35:22.751Z,99999.09
2022-08-25T19:38:33.884Z,99996.16
2022-08-25T19:41:37.622Z,99997.78
2022-08-25T19:44:42.139Z,99997.53
2022-08-25T19:47:44.841Z,99988.06
2022-08-25T19:50:47.373Z,99988.25
2022-08-25T19:53:54.030Z,100001.41
2022-08-25T19:56:59.168Z,99989.03
2022-08-25T20:00:03.872Z,100000.78
2022-08-25T20:03:14.162Z,100001.38
2022-08-25T20:06:17.303Z,99999.72
2022-08-25T20:09:35.480Z,99996.62
2022-08-25T20:12:44.688Z,99987.13
2022-08-25T20:15:47.503Z,100002.78
2022-08-25T20:18:50.301Z,99997.81
2022-08-25T20:21:52.441Z,99997.31
2022-08-25T20:24:59.163Z,99992.72
2022-08-25T20:28:03.194Z,99998.47
2022-08-25T20:31:05.974Z,100004.22
2022-08-25T20:34:08.730Z,100001.75
2022-08-25T20:37:12.259Z,100005.66
2022-08-25T20:40:18.810Z,100003.06
2022-08-25T20:43:29.649Z,99991.50
2022-08-25T20:46:35.951Z,99989.84
2022-08-25T20:49:44.479Z,99996.16
2022-08-25T20:52:48.460Z,99994.09
2022-08-25T20:55:51.370Z,100000.00
2022-08-25T20:58:54.469Z,100005.56
2022-08-25T21:01:58.326Z,99999.94
2022-08-25T21:05:01.911Z,100001.09
2022-08-25T21:08:04.864Z,100000.50
2022-08-25T21:11:08.103Z,99999.06
2022-08-25T21:14:10.925Z,99999.25
2022-08-25T21:17:15.654Z,100000.66
2022-08-25T21:20:26.034Z,100000.41
2022-08-25T21:23:28.951Z,99999.97
2022-08-25T21:26:31.474Z,99985.47
2022-08-25T21:29:34.219Z,99983.56
2022-08-25T21:32:36.741Z,99977.00
2022-08-25T21:35:41.195Z,99977.44
2022-08-25T21:38:48.451Z,99977.66
2022-08-25T21:41:52.689Z,99983.41
2022-08-25T21:44:56.246Z,99987.72
2022-08-25T21:47:58.435Z,99988.09
2022-08-25T21:51:29.462Z,99983.13
2022-08-25T21:54:32.652Z,99987.06
2022-08-25T21:57:36.685Z,99981.34
2022-08-25T22:00:38.943Z,99980.44
2022-08-25T22:03:42.839Z,99979.81
2022-08-25T22:06:49.548Z,99986.03
2022-08-25T22:09:52.844Z,99987.03
2022-08-25T22:12:56.253Z,99984.56
2022-08-25T22:15:59.319Z,99983.72
2022-08-25T22:19:02.448Z,99982.69
2022-08-25T22:22:06.810Z,99987.22
2022-08-25T22:25:09.091Z,99982.88
2022-08-25T22:28:14.508Z,99985.75
2022-08-25T22:31:20.548Z,99993.87
2022-08-25T22:34:30.656Z,99998.97
2022-08-25T22:37:35.065Z,99985.97
2022-08-25T22:40:39.676Z,99990.69
2022-08-25T22:43:45.389Z,99989.22
2022-08-25T22:46:47.912Z,99984.91
2022-08-25T22:49:52.367Z,99985.28
2022-08-25T22:52:55.562Z,99984.19
2022-08-25T22:55:59.142Z,99977.34
2022-08-25T22:59:08.364Z,99983.34
2022-08-25T23:02:10.882Z,99984.38
2022-08-25T23:05:15.086Z,99976.06
2022-08-25T23:08:17.500Z,99976.50
2022-08-25T23:11:40.116Z,99980.13
2022-08-25T23:14:44.252Z,99977.59
2022-08-25T23:17:46.951Z,99975.31
2022-08-25T23:21:08.882Z,99976.25
2022-08-25T23:24:14.291Z,99975.28
2022-08-25T23:27:31.523Z,99976.50
2022-08-25T23:30:34.077Z,99975.94
2022-08-25T23:33:36.309Z,99972.38
2022-08-25T23:36:39.107Z,99976.88
2022-08-25T23:39:43.707Z,99961.59
2022-08-25T23:42:47.584Z,99968.03
2022-08-25T23:45:50.033Z,99968.09
2022-08-25T23:48:54.627Z,99959.41
2022-08-25T23:51:57.380Z,99966.50
2022-08-25T23:55:01.057Z,99963.53
2022-08-25T23:58:03.827Z,99959.56
